createdAt,value
2022-10-07T00:00:46.458Z,7.63
2022-10-07T00:03:13.193Z,5.18
2022-10-07T00:05:39.736Z,4.30
2022-10-07T00:08:06.362Z,4.10
2022-10-07T00:10:37.553Z,5.10
2022-10-07T00:13:04.810Z,3.80
2022-10-07T00:15:31.416Z,4.00
2022-10-07T00:17:57.934Z,4.80
2022-10-07T00:20:24.457Z,3.65
2022-10-07T00:22:50.980Z,4.05
2022-10-07T00:25:17.583Z,3.35
2022-10-07T00:27:44.276Z,5.68
2022-10-07T00:30:11.612Z,4.45
2022-10-07T00:32:43.385Z,3.72
2022-10-07T00:35:09.940Z,5.03
2022-10-07T00:37:41.675Z,3.67
2022-10-07T00:40:11.185Z,3.42
2022-10-07T00:42:37.973Z,3.85
2022-10-07T00:45:04.774Z,4.30
2022-10-07T00:47:34.704Z,4.00
2022-10-07T00:50:09.396Z,3.35
2022-10-07T00:52:39.001Z,3.65
2022-10-07T00:55:08.262Z,3.40
2022-10-07T00:57:34.857Z,3.63
2022-10-07T01:00:02.422Z,3.30
2022-10-07T01:02:28.915Z,3.72
2022-10-07T01:04:58.844Z,3.53
2022-10-07T01:07:25.833Z,2.95
2022-10-07T01:09:53.704Z,3.63
2022-10-07T01:12:25.928Z,3.60
2022-10-07T01:17:31.004Z,3.08
2022-10-07T01:20:12.630Z,3.35
2022-10-07T01:22:52.398Z,3.13
2022-10-07T01:25:24.878Z,3.20
2022-10-07T01:27:53.502Z,3.50
2022-10-07T01:30:19.929Z,3.40
2022-10-07T01:32:54.588Z,3.63
2022-10-07T01:35:25.101Z,2.83
2022-10-07T01:37:56.402Z,3.63
2022-10-07T01:40:36.096Z,3.70
2022-10-07T01:43:02.527Z,3.20
2022-10-07T01:45:30.279Z,3.90
2022-10-07T01:47:56.797Z,4.20
2022-10-07T01:50:26.596Z,3.40
2022-10-07T01:53:15.549Z,3.67
2022-10-07T01:55:53.791Z,3.20
2022-10-07T01:58:33.497Z,3.30
2022-10-07T02:01:07.827Z,3.60
2022-10-07T02:04:03.883Z,3.17
2022-10-07T02:06:43.753Z,3.53
2022-10-07T02:09:25.579Z,3.30
2022-10-07T02:11:57.298Z,2.60
2022-10-07T02:14:26.502Z,3.20
2022-10-07T02:17:02.461Z,2.97
2022-10-07T02:19:32.334Z,3.22
2022-10-07T02:22:02.632Z,3.17
2022-10-07T02:24:31.014Z,3.45
2022-10-07T02:26:59.649Z,3.47
2022-10-07T02:29:27.196Z,3.13
2022-10-07T02:31:54.741Z,3.65
2022-10-07T02:34:23.113Z,3.17
2022-10-07T02:36:53.769Z,3.65
2022-10-07T02:39:21.460Z,3.30
2022-10-07T02:42:16.770Z,2.90
2022-10-07T02:44:49.510Z,2.67
2022-10-07T02:47:28.916Z,3.15
2022-10-07T02:49:57.178Z,3.00
2022-10-07T02:52:24.367Z,2.97
2022-10-07T02:55:08.455Z,2.53
2022-10-07T02:57:39.782Z,3.20
2022-10-07T03:00:11.149Z,3.17
2022-10-07T03:02:43.701Z,3.47
2022-10-07T03:07:37.019Z,2.90
2022-10-07T03:10:04.348Z,3.28
2022-10-07T03:12:30.772Z,4.30
2022-10-07T03:14:58.477Z,3.72
2022-10-07T03:17:24.880Z,3.42
2022-10-07T03:19:51.249Z,3.40
2022-10-07T03:22:17.625Z,3.65
2022-10-07T03:24:43.989Z,3.85
2022-10-07T03:27:10.455Z,2.88
2022-10-07T03:29:37.146Z,3.53
2022-10-07T03:32:03.986Z,3.30
2022-10-07T03:34:31.610Z,3.63
2022-10-07T03:36:58.744Z,3.33
2022-10-07T03:39:25.163Z,3.05
2022-10-07T03:41:57.019Z,3.92
2022-10-07T03:44:23.625Z,4.47
2022-10-07T03:46:51.386Z,3.50
2022-10-07T03:49:18.878Z,3.85
2022-10-07T03:51:45.419Z,3.50
2022-10-07T03:54:12.941Z,3.38
2022-10-07T03:56:39.373Z,3.63
2022-10-07T03:59:05.886Z,3.80
2022-10-07T04:01:32.381Z,3.88
2022-10-07T04:04:00.396Z,3.45
2022-10-07T04:06:27.387Z,3.25
2022-10-07T04:08:59.822Z,3.40
2022-10-07T04:11:26.693Z,3.08
2022-10-07T04:13:53.115Z,3.15
2022-10-07T04:16:19.934Z,3.53
2022-10-07T04:18:56.877Z,3.45
2022-10-07T04:21:23.851Z,3.13
2022-10-07T04:23:50.553Z,4.03
2022-10-07T04:26:17.079Z,4.15
2022-10-07T04:28:43.711Z,3.88
2022-10-07T04:31:10.835Z,3.72
2022-10-07T04:33:41.602Z,4.00
2022-10-07T04:36:09.452Z,3.80
2022-10-07T04:38:36.029Z,4.15
2022-10-07T04:41:07.082Z,4.00
2022-10-07T04:43:34.109Z,3.50
2022-10-07T04:46:05.913Z,4.13
2022-10-07T04:48:32.561Z,3.92
2022-10-07T04:51:07.734Z,4.15
2022-10-07T04:53:41.328Z,3.85
2022-10-07T04:56:08.790Z,5.20
2022-10-07T04:58:36.155Z,3.28
2022-10-07T05:01:07.910Z,3.83
2022-10-07T05:03:41.852Z,3.45
2022-10-07T05:06:08.936Z,3.25
2022-10-07T05:08:35.607Z,3.72
2022-10-07T05:11:03.162Z,3.67
2022-10-07T05:13:29.660Z,3.40
2022-10-07T05:16:00.588Z,3.78
2022-10-07T05:18:28.350Z,3.00
2022-10-07T05:21:07.618Z,3.47
2022-10-07T05:23:36.665Z,3.83
2022-10-07T05:26:07.791Z,3.15
2022-10-07T05:28:35.071Z,3.30
2022-10-07T05:31:06.248Z,3.70
2022-10-07T05:33:32.796Z,3.53
2022-10-07T05:35:59.895Z,4.13
2022-10-07T05:38:26.657Z,4.45
2022-10-07T05:40:58.723Z,3.65
2022-10-07T05:43:26.688Z,3.60
2022-10-07T05:46:04.701Z,4.10
2022-10-07T05:48:36.605Z,3.95
2022-10-07T05:51:06.014Z,3.88
2022-10-07T05:53:46.756Z,3.78
2022-10-07T05:56:20.226Z,4.38
2022-10-07T05:58:48.483Z,4.00
2022-10-07T06:01:21.950Z,4.22
2022-10-07T06:03:50.390Z,3.95
2022-10-07T06:06:17.475Z,4.70
2022-10-07T06:08:44.038Z,3.47
2022-10-07T06:11:43.361Z,3.83
2022-10-07T06:14:09.767Z,4.15
2022-10-07T06:16:36.246Z,3.67
2022-10-07T06:22:44.192Z,3.80
2022-10-07T06:25:10.872Z,3.42
2022-10-07T06:27:37.345Z,3.88
2022-10-07T06:33:50.753Z,3.78
2022-10-07T06:36:17.990Z,3.80
2022-10-07T06:38:47.350Z,4.28
2022-10-07T06:41:14.147Z,3.95
2022-10-07T06:43:40.538Z,3.95
2022-10-07T06:46:08.754Z,4.38
2022-10-07T06:48:35.431Z,3.38
2022-10-07T06:51:05.943Z,3.58
2022-10-07T06:53:32.538Z,3.35
2022-10-07T06:56:03.267Z,3.90
2022-10-07T06:58:29.808Z,3.88
2022-10-07T07:00:57.592Z,3.72
2022-10-07T07:03:24.484Z,4.25
2022-10-07T07:05:54.995Z,3.58
2022-10-07T07:08:28.964Z,3.80
2022-10-07T07:10:55.636Z,3.55
2022-10-07T07:13:22.326Z,4.00
2022-10-07T07:15:56.367Z,3.65
2022-10-07T07:18:23.094Z,4.15
2022-10-07T07:20:49.482Z,4.63
2022-10-07T07:23:16.058Z,3.38
2022-10-07T07:25:46.019Z,4.13
2022-10-07T07:28:14.905Z,3.38
2022-10-07T07:30:41.647Z,3.80
2022-10-07T07:33:08.800Z,3.45
2022-10-07T07:35:39.905Z,3.28
2022-10-07T07:38:06.350Z,3.45
2022-10-07T07:40:32.777Z,3.30
2022-10-07T07:42:59.236Z,3.72
2022-10-07T07:45:25.661Z,2.63
2022-10-07T07:48:04.328Z,3.20
2022-10-07T07:50:30.815Z,3.05
2022-10-07T07:52:57.686Z,2.85
2022-10-07T07:55:24.273Z,3.20
2022-10-07T07:57:50.681Z,3.00
2022-10-07T08:00:17.445Z,3.08
2022-10-07T08:02:43.939Z,2.35
2022-10-07T08:05:10.715Z,2.70
2022-10-07T08:07:38.353Z,2.95
2022-10-07T08:10:05.158Z,2.50
2022-10-07T08:12:32.516Z,2.60
2022-10-07T08:14:59.030Z,2.13
2022-10-07T08:17:25.669Z,2.95
2022-10-07T08:19:52.097Z,2.40
2022-10-07T08:22:18.492Z,2.40
2022-10-07T08:24:45.823Z,2.45
2022-10-07T08:27:14.366Z,2.30
2022-10-07T08:29:41.081Z,1.98
2022-10-07T08:32:07.459Z,2.13
2022-10-07T08:34:33.882Z,2.55
2022-10-07T08:37:00.289Z,2.17
2022-10-07T08:39:29.319Z,2.38
2022-10-07T08:42:03.462Z,2.08
2022-10-07T08:44:32.467Z,3.63
2022-10-07T08:47:23.829Z,2.45
2022-10-07T08:50:07.825Z,2.80
2022-10-07T08:52:37.230Z,2.00
2022-10-07T08:55:20.023Z,2.20
2022-10-07T08:58:10.536Z,2.30
2022-10-07T09:00:44.507Z,2.08
2022-10-07T09:03:39.341Z,2.00
2022-10-07T09:06:11.348Z,1.92
2022-10-07T09:08:40.884Z,3.17
2022-10-07T09:11:25.794Z,1.92
2022-10-07T09:14:04.684Z,2.13
2022-10-07T09:16:41.730Z,2.38
2022-10-07T09:19:14.590Z,3.17
2022-10-07T09:21:49.563Z,2.17
2022-10-07T09:24:20.274Z,2.00
2022-10-07T09:26:47.344Z,1.95
2022-10-07T09:29:13.873Z,2.72
2022-10-07T09:31:40.271Z,1.77
2022-10-07T09:34:18.142Z,3.17
2022-10-07T09:37:22.242Z,2.38
2022-10-07T09:39:51.047Z,2.17
2022-10-07T09:42:43.181Z,1.98
2022-10-07T09:45:23.003Z,1.50
2022-10-07T09:47:55.632Z,2.10
2022-10-07T09:50:48.793Z,2.17
2022-10-07T09:53:21.957Z,2.13
2022-10-07T09:56:18.182Z,2.30
2022-10-07T09:58:44.632Z,1.80
2022-10-07T10:01:11.914Z,1.30
2022-10-07T10:03:38.430Z,2.53
2022-10-07T10:06:07.305Z,2.20
2022-10-07T10:08:36.185Z,2.05
2022-10-07T10:11:05.266Z,2.03
2022-10-07T10:13:35.641Z,2.17
2022-10-07T10:16:04.240Z,1.77
2022-10-07T10:18:41.140Z,2.38
2022-10-07T10:21:29.795Z,2.30
2022-10-07T10:24:16.547Z,2.20
2022-10-07T10:26:53.850Z,3.13
2022-10-07T10:29:44.624Z,2.58
2022-10-07T10:32:39.213Z,1.65
2022-10-07T10:35:13.973Z,2.53
2022-10-07T10:37:57.961Z,1.88
2022-10-07T10:40:58.881Z,1.95
2022-10-07T10:43:25.173Z,2.20
2022-10-07T10:46:22.587Z,2.15
2022-10-07T10:49:25.359Z,2.08
2022-10-07T10:52:13.417Z,1.55
2022-10-07T10:54:51.166Z,2.17
2022-10-07T10:57:37.366Z,1.92
2022-10-07T11:00:15.481Z,1.98
2022-10-07T11:03:05.608Z,1.92
2022-10-07T11:05:35.796Z,2.13
2022-10-07T11:08:27.489Z,2.17
2022-10-07T11:10:53.969Z,1.65
2022-10-07T11:13:40.952Z,1.95
2022-10-07T11:16:17.351Z,1.98
2022-10-07T11:18:46.950Z,2.80
2022-10-07T11:21:18.141Z,1.85
2022-10-07T11:23:53.524Z,2.60
2022-10-07T11:26:39.604Z,2.38
2022-10-07T11:30:05.912Z,2.30
2022-10-07T11:32:48.061Z,2.25
2022-10-07T11:35:35.508Z,2.42
2022-10-07T11:38:12.178Z,2.00
2022-10-07T11:40:51.109Z,2.00
2022-10-07T11:43:38.217Z,2.40
2022-10-07T11:46:11.776Z,2.17
2022-10-07T11:48:42.576Z,1.98
2022-10-07T11:51:09.735Z,1.70
2022-10-07T11:53:37.687Z,2.58
2022-10-07T11:56:36.356Z,2.22
2022-10-07T11:59:06.510Z,3.08
2022-10-07T12:01:35.952Z,2.90
2022-10-07T12:04:20.849Z,2.22
2022-10-07T12:07:24.911Z,2.40
2022-10-07T12:10:23.166Z,1.90
2022-10-07T12:12:52.046Z,2.00
2022-10-07T12:15:42.311Z,2.00
2022-10-07T12:18:10.342Z,2.15
2022-10-07T12:21:01.544Z,1.52
2022-10-07T12:23:30.838Z,2.80
2022-10-07T12:26:30.282Z,1.98
2022-10-07T12:28:57.444Z,2.28
2022-10-07T12:31:46.185Z,2.40
2022-10-07T12:34:36.001Z,2.50
2022-10-07T12:37:59.307Z,2.40
2022-10-07T12:40:28.750Z,2.00
2022-10-07T12:43:00.932Z,2.65
2022-10-07T12:48:02.657Z,2.05
2022-10-07T12:50:33.462Z,3.03
2022-10-07T12:53:13.385Z,3.08
2022-10-07T12:55:44.714Z,2.95
2022-10-07T12:58:42.122Z,1.95
2022-10-07T13:01:18.075Z,2.40
2022-10-07T13:04:10.228Z,2.20
2022-10-07T13:07:05.987Z,2.25
2022-10-07T13:09:54.516Z,2.30
2022-10-07T13:12:31.272Z,2.60
2022-10-07T13:15:03.712Z,2.80
2022-10-07T13:18:13.798Z,2.22
2022-10-07T13:21:07.505Z,2.10
2022-10-07T13:23:34.683Z,2.40
2022-10-07T13:26:03.157Z,2.38
2022-10-07T13:28:45.546Z,2.60
2022-10-07T13:31:31.604Z,2.40
2022-10-07T13:33:59.577Z,2.13
2022-10-07T13:36:32.863Z,2.50
2022-10-07T13:39:31.856Z,2.25
2022-10-07T13:41:59.861Z,1.98
2022-10-07T13:44:28.701Z,2.17
2022-10-07T13:47:25.151Z,2.45
2022-10-07T13:49:53.283Z,2.15
2022-10-07T13:52:29.097Z,2.78
2022-10-07T13:54:55.489Z,2.30
2022-10-07T13:57:22.382Z,2.10
2022-10-07T13:59:51.556Z,2.28
2022-10-07T14:02:20.278Z,2.50
2022-10-07T14:05:18.771Z,2.38
2022-10-07T14:07:45.353Z,2.72
2022-10-07T14:10:13.502Z,2.88
2022-10-07T14:12:49.276Z,2.70
2022-10-07T14:15:19.709Z,2.40
2022-10-07T14:17:58.362Z,2.28
2022-10-07T14:20:43.724Z,2.42
2022-10-07T14:23:32.806Z,2.40
2022-10-07T14:26:01.015Z,2.22
2022-10-07T14:28:29.832Z,2.25
2022-10-07T14:31:27.253Z,2.63
2022-10-07T14:34:15.690Z,2.45
2022-10-07T14:37:01.544Z,2.53
2022-10-07T14:39:32.321Z,2.25
2022-10-07T14:41:58.695Z,2.50
2022-10-07T14:44:25.889Z,2.58
2022-10-07T14:47:21.221Z,2.45
2022-10-07T14:49:59.576Z,2.03
2022-10-07T14:52:28.927Z,2.55
2022-10-07T14:54:57.378Z,2.70
2022-10-07T14:57:25.262Z,2.80
2022-10-07T14:59:52.195Z,2.30
2022-10-07T15:02:19.029Z,2.35
2022-10-07T15:04:47.228Z,2.13
2022-10-07T15:07:14.980Z,2.35
2022-10-07T15:10:03.428Z,2.30
2022-10-07T15:12:30.578Z,2.85
2022-10-07T15:14:56.980Z,1.90
2022-10-07T15:17:23.351Z,1.88
2022-10-07T15:19:52.257Z,2.30
2022-10-07T15:22:18.664Z,2.75
2022-10-07T15:24:45.029Z,2.53
2022-10-07T15:27:11.390Z,2.25
2022-10-07T15:29:37.731Z,2.22
2022-10-07T15:32:05.464Z,2.15
2022-10-07T15:34:31.816Z,2.17
2022-10-07T15:36:58.545Z,2.15
2022-10-07T15:39:26.444Z,2.28
2022-10-07T15:41:53.294Z,2.20
2022-10-07T15:44:22.142Z,1.75
2022-10-07T15:46:52.456Z,2.47
2022-10-07T15:49:18.934Z,1.85
2022-10-07T15:51:48.661Z,1.80
2022-10-07T15:54:15.164Z,2.35
2022-10-07T15:57:14.679Z,2.70
2022-10-07T15:59:42.025Z,2.63
2022-10-07T16:02:15.875Z,2.20
2022-10-07T16:04:42.877Z,2.00
2022-10-07T16:07:11.108Z,2.33
2022-10-07T16:09:37.663Z,2.47
2022-10-07T16:12:04.094Z,2.80
2022-10-07T16:14:31.479Z,2.30
2022-10-07T16:20:39.630Z,2.03
2022-10-07T16:26:47.839Z,1.90
2022-10-07T16:29:35.844Z,2.28
2022-10-07T16:32:02.369Z,2.60
2022-10-07T16:34:29.345Z,2.58
2022-10-07T16:36:57.121Z,2.70
2022-10-07T16:39:23.771Z,2.05
2022-10-07T16:41:51.886Z,1.98
2022-10-07T16:44:19.369Z,2.88
2022-10-07T16:46:46.075Z,2.30
2022-10-07T16:53:01.172Z,3.53
2022-10-07T16:55:27.957Z,2.47
2022-10-07T16:58:02.516Z,2.80
2022-10-07T17:04:20.377Z,2.42
2022-10-07T17:10:51.765Z,2.45
2022-10-07T17:13:23.294Z,2.55
2022-10-07T17:15:52.623Z,2.00
2022-10-07T17:18:25.341Z,2.30
2022-10-07T17:20:52.289Z,1.88
2022-10-07T17:23:20.970Z,2.13
2022-10-07T17:25:48.081Z,2.88
2022-10-07T17:28:15.139Z,2.50
2022-10-07T17:34:29.317Z,2.15
2022-10-07T17:40:43.586Z,2.65
2022-10-07T17:46:51.095Z,3.05
2022-10-07T17:52:57.990Z,2.30
2022-10-07T17:55:24.519Z,2.80
2022-10-07T17:57:51.055Z,3.55
2022-10-07T18:00:17.725Z,3.80
2022-10-07T18:02:44.559Z,25.55
2022-10-07T18:05:14.389Z,144.38
2022-10-07T18:07:42.751Z,124.97
2022-10-07T18:10:09.592Z,48.80
2022-10-07T18:16:23.254Z,12.52
2022-10-07T18:18:55.001Z,9.27
2022-10-07T18:21:22.450Z,7.88
2022-10-07T18:27:29.809Z,5.43
2022-10-07T18:29:56.302Z,4.20
2022-10-07T18:32:23.227Z,4.10
2022-10-07T18:34:49.645Z,3.55
2022-10-07T18:37:16.663Z,3.65
2022-10-07T18:39:43.080Z,3.95
2022-10-07T18:42:09.526Z,3.25
2022-10-07T18:44:35.994Z,3.50
2022-10-07T18:47:02.460Z,3.42
2022-10-07T18:49:28.911Z,3.58
2022-10-07T18:51:55.375Z,3.75
2022-10-07T18:58:02.295Z,4.10
2022-10-07T19:03:09.534Z,6.32
2022-10-07T19:06:33.524Z,8.23
2022-10-07T19:08:33.977Z,11.50
2022-10-07T19:11:08.408Z,9.00
2022-10-07T19:13:56.177Z,10.13
2022-10-07T19:16:25.469Z,9.23
2022-10-07T19:18:54.084Z,10.00
2022-10-07T19:21:21.226Z,9.60
2022-10-07T19:23:49.398Z,9.75
2022-10-07T19:26:21.266Z,8.80
2022-10-07T19:31:23.805Z,9.50
2022-10-07T19:33:52.887Z,8.85
2022-10-07T19:36:20.883Z,7.68
2022-10-07T19:38:52.217Z,7.65
2022-10-07T19:41:21.308Z,8.43
2022-10-07T19:47:42.614Z,6.30
2022-10-07T19:50:09.074Z,5.95
2022-10-07T19:52:35.466Z,5.15
2022-10-07T19:55:01.901Z,5.60
2022-10-07T20:01:17.911Z,5.00
2022-10-07T20:03:44.503Z,4.80
2022-10-07T20:06:11.193Z,5.43
2022-10-07T20:08:39.608Z,5.97
2022-10-07T20:11:07.020Z,5.55
2022-10-07T20:13:34.866Z,5.03
2022-10-07T20:16:03.348Z,4.57
2022-10-07T20:18:29.768Z,4.63
2022-10-07T20:24:43.164Z,4.55
2022-10-07T20:27:09.583Z,4.65
2022-10-07T20:29:55.952Z,4.55
2022-10-07T20:32:23.135Z,5.50
2022-10-07T20:34:50.125Z,5.13
2022-10-07T20:37:17.170Z,4.53
2022-10-07T20:43:24.030Z,5.05
2022-10-07T20:45:57.004Z,4.35
2022-10-07T20:48:23.601Z,5.25
2022-10-07T20:50:50.866Z,5.05
2022-10-07T20:57:04.186Z,5.18
2022-10-07T20:59:31.322Z,4.63
2022-10-07T21:01:58.783Z,5.07
2022-10-07T21:04:28.308Z,5.22
2022-10-07T21:06:56.577Z,4.50
2022-10-07T21:09:23.375Z,5.43
2022-10-07T21:11:50.170Z,5.60
2022-10-07T21:14:17.308Z,4.35
2022-10-07T21:16:44.253Z,5.07
2022-10-07T21:19:10.691Z,4.57
2022-10-07T21:25:18.134Z,4.53
2022-10-07T21:27:44.510Z,4.60
2022-10-07T21:30:11.882Z,5.22
2022-10-07T21:32:38.293Z,4.53
2022-10-07T21:35:05.034Z,4.82
2022-10-07T21:37:31.421Z,5.13
2022-10-07T21:39:57.982Z,4.50
2022-10-07T21:42:24.849Z,4.88
2022-10-07T21:44:51.256Z,4.35
2022-10-07T21:47:17.638Z,4.55
2022-10-07T21:49:45.185Z,4.88
2022-10-07T21:52:11.565Z,4.45
2022-10-07T21:54:38.369Z,4.22
2022-10-07T21:57:05.094Z,4.82
2022-10-07T21:59:33.554Z,3.88
2022-10-07T22:01:59.977Z,4.20
2022-10-07T22:04:30.519Z,5.10
2022-10-07T22:07:15.874Z,4.70
2022-10-07T22:09:42.262Z,5.80
2022-10-07T22:12:08.800Z,4.63
2022-10-07T22:14:35.449Z,4.40
2022-10-07T22:17:01.839Z,4.07
2022-10-07T22:23:21.387Z,4.03
2022-10-07T22:25:48.790Z,4.25
2022-10-07T22:28:15.207Z,4.13
2022-10-07T22:30:41.741Z,4.07
2022-10-07T22:33:10.200Z,4.85
2022-10-07T22:35:39.979Z,4.45
2022-10-07T22:38:06.407Z,4.20
2022-10-07T22:40:36.625Z,4.50
2022-10-07T22:43:03.013Z,4.03
2022-10-07T22:45:29.419Z,4.03
2022-10-07T22:47:55.797Z,4.15
2022-10-07T22:50:22.191Z,4.28
2022-10-07T22:52:49.222Z,4.32
2022-10-07T22:55:18.012Z,4.30
2022-10-07T22:57:44.382Z,5.05
2022-10-07T23:00:11.479Z,6.03
2022-10-07T23:02:38.029Z,6.10
2022-10-07T23:05:04.804Z,4.10
2022-10-07T23:07:32.173Z,3.97
2022-10-07T23:09:58.678Z,4.32
2022-10-07T23:12:25.369Z,4.97
2022-10-07T23:14:51.762Z,4.28
2022-10-07T23:21:08.139Z,4.57
2022-10-07T23:23:36.399Z,4.25
2022-10-07T23:26:03.859Z,4.90
2022-10-07T23:28:31.961Z,3.47
2022-10-07T23:31:03.358Z,4.70
2022-10-07T23:33:31.007Z,4.40
2022-10-07T23:35:57.567Z,4.03
2022-10-07T23:38:26.261Z,3.90
2022-10-07T23:40:55.714Z,3.80
2022-10-07T23:43:22.681Z,4.47
2022-10-07T23:45:50.723Z,3.95
2022-10-07T23:48:19.043Z,4.68
2022-10-07T23:50:53.209Z,3.80
2022-10-07T23:53:20.525Z,4.00
2022-10-07T23:55:52.929Z,3.88
2022-10-07T23:58:20.927Z,4.40
